Time;durP1;ratioP1;P1;durP2;ratioP2;P2;SDS_P1;SDS_P2;PMS_P1;PMS_P2;Temp;Humidity;BMP_temperature;BMP_pressure;BME280_temperature;BME280_humidity;BME280_pressure;Samples;Min_cycle;Max_cycle;Signal;HPM_P1;HPM_P2
2023/03/31 00:00:28;;;;;;;;;;;12.30;99.90;;;;;;5075319;28;19936;-56
2023/03/31 00:02:54;;;;;;;;;;;12.30;99.90;;;;;;5075041;28;19999;-56
2023/03/31 00:05:23;;;;;;;;;;;12.40;99.90;;;;;;5075128;28;19927;-56
2023/03/31 00:08:00;;;;;;;;;;;12.40;99.90;;;;;;5075395;28;20335;-56
2023/03/31 00:10:26;;;;;;;;;;;12.40;99.90;;;;;;5074951;28;20316;-56
2023/03/31 00:12:52;;;;;;;;;;;12.40;99.90;;;;;;5075106;28;19955;-56
2023/03/31 00:15:18;;;;;;;;;;;12.40;99.90;;;;;;5075534;28;19971;-56
2023/03/31 00:17:46;;;;;;;;;;;12.40;99.90;;;;;;5074862;28;19916;-56
2023/03/31 00:20:12;;;;;;;;;;;12.30;99.90;;;;;;5075031;28;19912;-56
2023/03/31 00:22:40;;;;;;;;;;;12.30;99.90;;;;;;5074884;28;20077;-56
2023/03/31 00:25:08;;;;;;;;;;;12.30;99.90;;;;;;5074973;28;20269;-56
2023/03/31 00:27:34;;;;;;;;;;;12.30;99.90;;;;;;5074919;28;20377;-56
2023/03/31 00:30:00;;;;;;;;;;;12.30;99.90;;;;;;5075200;28;19920;-56
2023/03/31 00:32:26;;;;;;;;;;;12.40;99.90;;;;;;5074618;28;19913;-56
2023/03/31 00:34:51;;;;;;;;;;;12.40;99.90;;;;;;5056912;28;19959;-56
2023/03/31 00:37:17;;;;;;;;;;;12.40;99.90;;;;;;5056947;28;19958;-56
2023/03/31 00:39:43;;;;;;;;;;;12.50;99.90;;;;;;5074679;28;19913;-56
2023/03/31 00:42:11;;;;;;;;;;;12.40;99.90;;;;;;5074818;28;19999;-56
2023/03/31 00:45:00;;;;;;;;;;;12.40;99.90;;;;;;5074635;28;19917;-56
2023/03/31 00:47:28;;;;;;;;;;;12.40;99.90;;;;;;5046024;28;19912;-56
2023/03/31 00:49:58;;;;;;;;;;;12.40;99.90;;;;;;5056986;28;19917;-56
2023/03/31 00:52:26;;;;;;;;;;;12.40;99.90;;;;;;5074411;28;19965;-56
2023/03/31 00:54:55;;;;;;;;;;;12.40;99.90;;;;;;5074579;28;19944;-56
2023/03/31 00:57:21;;;;;;;;;;;12.40;99.90;;;;;;5074085;28;19913;-56
2023/03/31 00:59:56;;;;;;;;;;;12.40;99.90;;;;;;5056596;28;19935;-56
2023/03/31 01:02:25;;;;;;;;;;;12.40;99.90;;;;;;5056437;28;19912;-56
2023/03/31 01:04:54;;;;;;;;;;;12.40;99.90;;;;;;5074511;28;19917;-56
2023/03/31 01:07:32;;;;;;;;;;;12.40;99.90;;;;;;5074439;28;19920;-56
2023/03/31 01:09:59;;;;;;;;;;;12.40;99.90;;;;;;5074286;28;20011;-56
2023/03/31 01:12:25;;;;;;;;;;;12.40;99.90;;;;;;5074389;28;19916;-56
2023/03/31 01:14:52;;;;;;;;;;;12.40;99.90;;;;;;5074602;28;19913;-56
2023/03/31 01:17:20;;;;;;;;;;;12.40;99.90;;;;;;5074401;28;19924;-56
2023/03/31 01:19:46;;;;;;;;;;;12.30;99.90;;;;;;5074535;28;19916;-56
2023/03/31 01:22:30;;;;;;;;;;;12.30;99.90;;;;;;5074194;28;19912;-56
2023/03/31 01:25:11;;;;;;;;;;;12.30;99.90;;;;;;5056302;28;19995;-56
2023/03/31 01:27:56;;;;;;;;;;;12.30;99.90;;;;;;5056085;28;20413;-56
2023/03/31 01:30:35;;;;;;;;;;;12.30;99.90;;;;;;5074417;28;19912;-56
2023/03/31 01:33:19;;;;;;;;;;;12.30;99.90;;;;;;5074238;28;19920;-56
2023/03/31 01:36:05;;;;;;;;;;;12.30;99.90;;;;;;5073950;28;19920;-56
2023/03/31 01:38:37;;;;;;;;;;;12.30;99.90;;;;;;5073914;28;19917;-56
2023/03/31 01:41:19;;;;;;;;;;;12.30;99.90;;;;;;5074166;28;19920;-56
2023/03/31 01:43:59;;;;;;;;;;;12.30;99.90;;;;;;5073950;28;19916;-56
2023/03/31 01:46:27;;;;;;;;;;;12.30;99.90;;;;;;5055905;28;19912;-56
2023/03/31 01:49:12;;;;;;;;;;;12.40;99.90;;;;;;5074085;28;19913;-56
2023/03/31 01:51:41;;;;;;;;;;;12.40;99.90;;;;;;5055767;28;19974;-56
2023/03/31 01:54:22;;;;;;;;;;;12.40;99.90;;;;;;5073865;28;19920;-56
2023/03/31 01:56:57;;;;;;;;;;;12.40;99.90;;;;;;5073776;28;19916;-56
2023/03/31 01:59:28;;;;;;;;;;;12.40;99.90;;;;;;5073983;28;19923;-56
2023/03/31 02:02:03;;;;;;;;;;;12.30;99.90;;;;;;5074020;28;20389;-56
2023/03/31 02:04:35;;;;;;;;;;;12.30;99.90;;;;;;5073447;28;20289;-56
2023/03/31 02:07:21;;;;;;;;;;;12.20;99.90;;;;;;5055955;28;19916;-56
2023/03/31 02:09:49;;;;;;;;;;;12.20;99.90;;;;;;5077636;28;19935;-56
2023/03/31 02:12:17;;;;;;;;;;;12.20;99.90;;;;;;5060456;28;20033;-56
2023/03/31 02:14:45;;;;;;;;;;;12.20;99.90;;;;;;5077857;28;19924;-56
2023/03/31 02:17:16;;;;;;;;;;;12.20;99.90;;;;;;5078188;28;19923;-56
2023/03/31 02:19:45;;;;;;;;;;;12.20;99.90;;;;;;5060210;28;19920;-56
2023/03/31 02:22:11;;;;;;;;;;;12.20;99.90;;;;;;5078307;28;20484;-56
2023/03/31 02:24:39;;;;;;;;;;;12.20;99.90;;;;;;5060094;28;19956;-56
2023/03/31 02:27:08;;;;;;;;;;;12.10;99.90;;;;;;5060171;28;19922;-56
2023/03/31 02:29:34;;;;;;;;;;;12.20;99.90;;;;;;5077934;28;19913;-56
2023/03/31 02:32:09;;;;;;;;;;;12.20;99.90;;;;;;5059968;28;20395;-56
2023/03/31 02:34:35;;;;;;;;;;;12.10;99.90;;;;;;5077806;28;19960;-56
2023/03/31 02:37:01;;;;;;;;;;;12.10;99.90;;;;;;5078160;28;19927;-56
2023/03/31 02:39:33;;;;;;;;;;;12.10;99.90;;;;;;5077894;28;19912;-56
2023/03/31 02:42:01;;;;;;;;;;;12.10;99.90;;;;;;5077932;28;19948;-56
2023/03/31 02:44:27;;;;;;;;;;;12.00;99.90;;;;;;5077838;28;19938;-56
2023/03/31 02:46:53;;;;;;;;;;;12.00;99.90;;;;;;5059849;28;19987;-56
2023/03/31 02:49:20;;;;;;;;;;;12.00;99.90;;;;;;5059840;28;19920;-56
2023/03/31 02:52:04;;;;;;;;;;;12.00;99.90;;;;;;5059740;28;19973;-56
2023/03/31 02:54:30;;;;;;;;;;;12.00;99.90;;;;;;5077283;28;19935;-56
2023/03/31 02:57:04;;;;;;;;;;;12.00;99.90;;;;;;5059513;28;19939;-56
2023/03/31 02:59:30;;;;;;;;;;;12.00;99.90;;;;;;5059530;28;19981;-56
2023/03/31 03:01:59;;;;;;;;;;;11.80;99.90;;;;;;5059620;28;19913;-56
2023/03/31 03:04:25;;;;;;;;;;;11.80;99.90;;;;;;5059298;28;19920;-56
2023/03/31 03:06:56;;;;;;;;;;;11.70;99.90;;;;;;5059459;28;19985;-56
2023/03/31 03:09:41;;;;;;;;;;;11.70;99.90;;;;;;5059137;28;20417;-56
2023/03/31 03:12:07;;;;;;;;;;;11.60;99.90;;;;;;5059371;28;20507;-56
2023/03/31 03:14:55;;;;;;;;;;;11.40;99.90;;;;;;5059018;28;20034;-56
2023/03/31 03:17:36;;;;;;;;;;;11.40;99.90;;;;;;5059204;28;20346;-56
2023/03/31 03:20:07;;;;;;;;;;;11.30;99.90;;;;;;5076585;28;19917;-56
2023/03/31 03:22:33;;;;;;;;;;;11.20;99.90;;;;;;5077053;28;20045;-56
2023/03/31 03:24:58;;;;;;;;;;;11.10;99.90;;;;;;5077177;28;19950;-56
2023/03/31 03:27:24;;;;;;;;;;;10.80;99.90;;;;;;5076951;28;20421;-56
2023/03/31 03:29:50;;;;;;;;;;;10.70;99.90;;;;;;5077016;28;19943;-56
2023/03/31 03:32:16;;;;;;;;;;;10.70;99.90;;;;;;5076524;28;20254;-56
2023/03/31 03:34:41;;;;;;;;;;;10.60;99.90;;;;;;5076670;28;20377;-56
2023/03/31 03:37:07;;;;;;;;;;;10.70;99.90;;;;;;5076907;28;20365;-56
2023/03/31 03:39:33;;;;;;;;;;;10.60;99.90;;;;;;5076641;28;19919;-56
2023/03/31 03:41:59;;;;;;;;;;;10.70;99.90;;;;;;5076714;28;19912;-56
2023/03/31 03:44:24;;;;;;;;;;;10.60;99.90;;;;;;5076552;28;19923;-56
2023/03/31 03:46:50;;;;;;;;;;;10.50;99.90;;;;;;5076731;28;19970;-56
2023/03/31 03:49:16;;;;;;;;;;;10.60;99.90;;;;;;5076679;28;19951;-56
2023/03/31 03:51:42;;;;;;;;;;;10.60;99.90;;;;;;5076408;28;19923;-56
2023/03/31 03:54:08;;;;;;;;;;;10.60;99.90;;;;;;5076359;28;19920;-56
2023/03/31 03:56:34;;;;;;;;;;;10.50;99.90;;;;;;5076339;28;19916;-56
2023/03/31 03:58:59;;;;;;;;;;;10.50;99.90;;;;;;5076422;28;19919;-56
2023/03/31 04:01:25;;;;;;;;;;;10.40;99.90;;;;;;5076294;28;19917;-56
2023/03/31 04:03:51;;;;;;;;;;;10.40;99.90;;;;;;5076278;28;19956;-56
2023/03/31 04:06:17;;;;;;;;;;;10.40;99.90;;;;;;5076180;28;19912;-56
2023/03/31 04:08:42;;;;;;;;;;;10.40;99.90;;;;;;5075900;28;19917;-56
2023/03/31 04:11:13;;;;;;;;;;;10.40;99.90;;;;;;5076221;28;20377;-56
2023/03/31 04:13:38;;;;;;;;;;;10.40;99.90;;;;;;5075931;28;19920;-56
2023/03/31 04:16:04;;;;;;;;;;;10.40;99.90;;;;;;5076073;28;20010;-56
2023/03/31 04:18:30;;;;;;;;;;;10.40;99.90;;;;;;5075890;28;19927;-56
2023/03/31 04:21:05;;;;;;;;;;;10.40;99.90;;;;;;5076052;28;19912;-56
2023/03/31 04:23:31;;;;;;;;;;;10.30;99.90;;;;;;5075809;28;19970;-56
2023/03/31 04:25:57;;;;;;;;;;;10.30;99.90;;;;;;5075942;28;19912;-56
2023/03/31 04:28:25;;;;;;;;;;;10.30;99.90;;;;;;5075799;28;19920;-56
2023/03/31 04:30:53;;;;;;;;;;;10.40;99.90;;;;;;5075074;28;19920;-56
2023/03/31 04:33:20;;;;;;;;;;;10.30;99.90;;;;;;5075951;28;20003;-56
2023/03/31 04:35:48;;;;;;;;;;;10.40;99.90;;;;;;5075791;28;19916;-56
2023/03/31 04:38:17;;;;;;;;;;;10.40;99.90;;;;;;5075737;28;19921;-56
2023/03/31 04:40:46;;;;;;;;;;;10.40;99.90;;;;;;5075682;28;19923;-56
2023/03/31 04:43:12;;;;;;;;;;;10.40;99.90;;;;;;5075620;28;20544;-56
2023/03/31 04:45:38;;;;;;;;;;;10.40;99.90;;;;;;5075514;28;19912;-56
2023/03/31 04:48:04;;;;;;;;;;;10.40;99.90;;;;;;5075046;28;19999;-56
2023/03/31 04:50:31;;;;;;;;;;;10.50;99.90;;;;;;5074883;28;20339;-56
2023/03/31 04:52:57;;;;;;;;;;;10.40;99.90;;;;;;5075220;28;20042;-57
2023/03/31 04:55:23;;;;;;;;;;;10.40;99.90;;;;;;5075326;28;19925;-57
2023/03/31 04:57:48;;;;;;;;;;;10.30;99.90;;;;;;5075304;28;19912;-57
2023/03/31 05:00:14;;;;;;;;;;;10.40;99.90;;;;;;5075496;28;19920;-57
2023/03/31 05:02:40;;;;;;;;;;;10.40;99.90;;;;;;5075314;28;19917;-57
2023/03/31 05:05:06;;;;;;;;;;;10.50;99.90;;;;;;5075304;28;19913;-57
2023/03/31 05:07:32;;;;;;;;;;;10.50;99.90;;;;;;5075282;28;19912;-57
2023/03/31 05:09:58;;;;;;;;;;;10.60;99.90;;;;;;5075201;28;20454;-57
2023/03/31 05:12:24;;;;;;;;;;;10.60;99.90;;;;;;5075147;28;19998;-57
2023/03/31 05:14:50;;;;;;;;;;;10.70;99.90;;;;;;5075117;28;19978;-57
2023/03/31 05:17:16;;;;;;;;;;;10.80;99.90;;;;;;5075254;28;19912;-57
2023/03/31 05:19:42;;;;;;;;;;;10.90;99.90;;;;;;5075057;28;20453;-57
2023/03/31 05:22:08;;;;;;;;;;;10.90;99.90;;;;;;5075129;28;19913;-57
2023/03/31 05:24:34;;;;;;;;;;;11.00;99.90;;;;;;5073277;28;19935;-57
2023/03/31 05:27:00;;;;;;;;;;;11.00;99.90;;;;;;5074977;28;19916;-57
2023/03/31 05:29:26;;;;;;;;;;;11.10;99.90;;;;;;5075118;28;19912;-57
2023/03/31 05:31:52;;;;;;;;;;;11.10;99.90;;;;;;5075157;28;19917;-57
2023/03/31 05:34:18;;;;;;;;;;;11.10;99.90;;;;;;5074918;28;20362;-57
2023/03/31 05:36:46;;;;;;;;;;;11.10;99.90;;;;;;5074230;28;19919;-57
2023/03/31 05:39:13;;;;;;;;;;;11.20;99.90;;;;;;5055100;28;19913;-57
2023/03/31 05:41:39;;;;;;;;;;;11.30;99.90;;;;;;5054606;28;19913;-57
2023/03/31 05:44:04;;;;;;;;;;;11.40;99.90;;;;;;5058402;28;20279;-57
2023/03/31 05:46:30;;;;;;;;;;;11.50;99.90;;;;;;5058646;28;19920;-57
2023/03/31 05:48:57;;;;;;;;;;;11.50;99.90;;;;;;5058113;28;20550;-57
2023/03/31 05:51:24;;;;;;;;;;;11.60;99.90;;;;;;5057681;28;19943;-57
2023/03/31 05:53:50;;;;;;;;;;;11.70;99.90;;;;;;5074305;28;19932;-57
2023/03/31 05:56:16;;;;;;;;;;;11.80;99.90;;;;;;5077474;28;19969;-57
2023/03/31 05:58:42;;;;;;;;;;;11.90;99.90;;;;;;5077381;28;19912;-57
2023/03/31 06:01:18;;;;;;;;;;;12.00;99.90;;;;;;5077848;28;19920;-57
2023/03/31 06:03:44;;;;;;;;;;;12.00;99.90;;;;;;5077416;28;19944;-57
2023/03/31 06:06:13;;;;;;;;;;;12.10;99.90;;;;;;5077213;28;19945;-58
2023/03/31 06:08:39;;;;;;;;;;;12.30;99.90;;;;;;5077444;28;19977;-57
2023/03/31 06:11:06;;;;;;;;;;;12.40;99.90;;;;;;5077181;28;19923;-57
2023/03/31 06:13:33;;;;;;;;;;;12.40;99.90;;;;;;5077229;28;20370;-58
2023/03/31 06:15:59;;;;;;;;;;;12.60;99.90;;;;;;5077074;28;19917;-57
2023/03/31 06:18:29;;;;;;;;;;;12.80;99.90;;;;;;5077419;28;19916;-57
2023/03/31 06:20:55;;;;;;;;;;;13.00;99.90;;;;;;5077211;28;20378;-57
2023/03/31 06:23:21;;;;;;;;;;;13.10;99.90;;;;;;5077024;28;19956;-58
2023/03/31 06:25:47;;;;;;;;;;;13.20;99.90;;;;;;5076755;28;20358;-58
2023/03/31 06:28:13;;;;;;;;;;;13.30;99.90;;;;;;5076577;28;19956;-58
2023/03/31 06:30:39;;;;;;;;;;;13.40;99.90;;;;;;5077189;28;19982;-58
2023/03/31 06:33:05;;;;;;;;;;;13.60;99.90;;;;;;5076890;28;19986;-58
2023/03/31 06:35:31;;;;;;;;;;;13.80;99.90;;;;;;5076548;28;19916;-58
2023/03/31 06:37:57;;;;;;;;;;;13.90;99.90;;;;;;5077181;28;19971;-58
2023/03/31 06:40:23;;;;;;;;;;;14.10;99.90;;;;;;5076916;28;20396;-58
2023/03/31 06:42:49;;;;;;;;;;;14.20;99.90;;;;;;5076688;28;19943;-58
2023/03/31 06:45:15;;;;;;;;;;;14.30;99.90;;;;;;5075909;28;19928;-58
2023/03/31 06:47:41;;;;;;;;;;;14.30;99.90;;;;;;5077301;28;19919;-58
2023/03/31 06:50:08;;;;;;;;;;;14.30;99.90;;;;;;5077714;28;19916;-58
2023/03/31 06:52:35;;;;;;;;;;;14.50;99.90;;;;;;5077357;28;19918;-58
2023/03/31 06:55:01;;;;;;;;;;;14.70;99.90;;;;;;5075844;28;20496;-58
2023/03/31 06:57:28;;;;;;;;;;;14.90;99.90;;;;;;5076619;28;19912;-58
2023/03/31 06:59:54;;;;;;;;;;;15.30;99.90;;;;;;5076529;28;19952;-57
2023/03/31 07:02:20;;;;;;;;;;;15.50;99.90;;;;;;5076534;28;19912;-58
2023/03/31 07:04:45;;;;;;;;;;;15.70;99.90;;;;;;5076482;28;20447;-58
2023/03/31 07:07:11;;;;;;;;;;;15.80;99.90;;;;;;5076380;28;20017;-58
2023/03/31 07:09:37;;;;;;;;;;;15.80;99.90;;;;;;5076588;28;19912;-58
2023/03/31 07:12:05;;;;;;;;;;;15.90;99.90;;;;;;5075983;28;19912;-58
2023/03/31 07:14:31;;;;;;;;;;;16.00;99.90;;;;;;5075240;28;19920;-58
2023/03/31 07:16:58;;;;;;;;;;;16.10;99.90;;;;;;5076035;28;19913;-58
2023/03/31 07:19:24;;;;;;;;;;;16.20;99.90;;;;;;5076498;28;19912;-57
2023/03/31 07:21:50;;;;;;;;;;;16.40;99.90;;;;;;5075997;28;19909;-58
2023/03/31 07:24:16;;;;;;;;;;;16.20;99.90;;;;;;5076023;28;19916;-58
2023/03/31 07:26:42;;;;;;;;;;;16.40;99.90;;;;;;5076111;28;19955;-58
2023/03/31 07:29:11;;;;;;;;;;;16.70;99.90;;;;;;5075281;28;19925;-58
2023/03/31 07:31:36;;;;;;;;;;;16.80;99.90;;;;;;5074924;28;19924;-58
2023/03/31 07:34:02;;;;;;;;;;;17.00;99.90;;;;;;5075759;28;19920;-58
2023/03/31 07:36:29;;;;;;;;;;;17.10;99.90;;;;;;5075658;28;19912;-58
2023/03/31 07:38:55;;;;;;;;;;;17.10;99.90;;;;;;5074383;28;19913;-58
2023/03/31 07:41:21;;;;;;;;;;;17.30;99.90;;;;;;5076320;28;20376;-58
2023/03/31 07:43:47;;;;;;;;;;;17.30;99.90;;;;;;5076431;28;19916;-58
2023/03/31 07:46:21;;;;;;;;;;;17.20;99.90;;;;;;5075935;28;19912;-58
2023/03/31 07:48:48;;;;;;;;;;;17.30;99.90;;;;;;5076468;28;19919;-58
2023/03/31 07:51:18;;;;;;;;;;;17.30;99.90;;;;;;5075992;28;19912;-58
2023/03/31 07:53:44;;;;;;;;;;;17.30;99.90;;;;;;5075737;28;19928;-58
2023/03/31 07:56:10;;;;;;;;;;;17.50;99.90;;;;;;5076253;28;19912;-58
2023/03/31 07:58:36;;;;;;;;;;;17.60;99.90;;;;;;5076627;28;19923;-58
2023/03/31 08:01:02;;;;;;;;;;;17.80;99.90;;;;;;5075968;28;19966;-58
2023/03/31 08:03:28;;;;;;;;;;;18.00;99.90;;;;;;5076182;28;20370;-58
2023/03/31 08:05:54;;;;;;;;;;;18.20;99.90;;;;;;5074662;28;20374;-58
2023/03/31 08:08:20;;;;;;;;;;;18.50;99.90;;;;;;5074305;28;19912;-58
2023/03/31 08:10:46;;;;;;;;;;;18.70;99.90;;;;;;5074678;28;19916;-58
2023/03/31 08:13:12;;;;;;;;;;;18.90;99.90;;;;;;5074575;28;19919;-58
2023/03/31 08:15:38;;;;;;;;;;;19.40;99.90;;;;;;5074869;28;19916;-58
2023/03/31 08:18:04;;;;;;;;;;;20.00;99.90;;;;;;5073851;28;20015;-58
2023/03/31 08:20:30;;;;;;;;;;;20.50;99.90;;;;;;5074597;28;20011;-58
2023/03/31 08:22:56;;;;;;;;;;;20.80;99.90;;;;;;5074807;28;19913;-58
2023/03/31 08:25:22;;;;;;;;;;;21.00;99.90;;;;;;5075811;28;19913;-58
2023/03/31 08:27:49;;;;;;;;;;;21.00;99.90;;;;;;5075174;28;20050;-59
2023/03/31 08:30:16;;;;;;;;;;;21.60;99.90;;;;;;5074578;28;19912;-59
2023/03/31 08:32:42;;;;;;;;;;;22.20;99.90;;;;;;5074183;28;19958;-58
2023/03/31 08:35:08;;;;;;;;;;;22.20;99.90;;;;;;5074768;28;19916;-59
2023/03/31 08:37:34;;;;;;;;;;;22.50;99.90;;;;;;5075356;28;19917;-59
2023/03/31 08:40:03;;;;;;;;;;;22.70;99.90;;;;;;5075402;28;19921;-59
2023/03/31 08:42:34;;;;;;;;;;;22.90;99.90;;;;;;5075520;28;19954;-59
2023/03/31 08:45:06;;;;;;;;;;;22.80;99.90;;;;;;5075250;28;19912;-59
2023/03/31 08:47:33;;;;;;;;;;;22.50;99.90;;;;;;5075232;28;20373;-59
2023/03/31 08:50:04;;;;;;;;;;;22.70;99.90;;;;;;5075336;28;20397;-59
2023/03/31 08:52:36;;;;;;;;;;;22.80;99.90;;;;;;5074872;28;20263;-59
2023/03/31 08:55:04;;;;;;;;;;;23.20;99.90;;;;;;5075476;28;19985;-59
2023/03/31 08:57:48;;;;;;;;;;;23.80;99.90;;;;;;5074846;28;19912;-59
2023/03/31 09:00:16;;;;;;;;;;;23.20;99.90;;;;;;5074432;28;20311;-59
2023/03/31 09:02:42;;;;;;;;;;;23.00;99.90;;;;;;5073723;28;19913;-59
2023/03/31 09:05:24;;;;;;;;;;;22.80;99.90;;;;;;5073944;28;20074;-59
2023/03/31 09:07:57;;;;;;;;;;;22.60;99.90;;;;;;5072990;28;19912;-59
2023/03/31 09:10:29;;;;;;;;;;;23.10;99.90;;;;;;5075013;28;19920;-59
2023/03/31 09:12:55;;;;;;;;;;;23.30;99.90;;;;;;5074784;28;19919;-59
2023/03/31 09:15:39;;;;;;;;;;;23.00;99.90;;;;;;5074629;28;20366;-59
2023/03/31 09:18:32;;;;;;;;;;;22.50;99.90;;;;;;5074447;28;19920;-60
2023/03/31 09:21:11;;;;;;;;;;;22.20;99.90;;;;;;5070343;28;19962;-59
2023/03/31 09:23:40;;;;;;;;;;;21.70;99.90;;;;;;5074346;28;19962;-59
2023/03/31 09:26:11;;;;;;;;;;;21.60;99.90;;;;;;5074659;28;19923;-59
2023/03/31 09:28:38;;;;;;;;;;;21.90;99.90;;;;;;5075162;28;19916;-59
2023/03/31 09:31:07;;;;;;;;;;;21.80;99.90;;;;;;5074945;28;19916;-59
2023/03/31 09:33:33;;;;;;;;;;;21.90;99.90;;;;;;5074826;28;20462;-59
2023/03/31 09:36:00;;;;;;;;;;;22.30;99.90;;;;;;5074707;28;20015;-59
2023/03/31 09:38:28;;;;;;;;;;;22.70;99.90;;;;;;5074648;28;19919;-59
2023/03/31 09:40:57;;;;;;;;;;;23.10;99.90;;;;;;5071395;28;19912;-59
2023/03/31 09:43:25;;;;;;;;;;;22.80;99.90;;;;;;5074511;28;19985;-59
2023/03/31 09:45:52;;;;;;;;;;;22.70;99.90;;;;;;5074396;28;20339;-59
2023/03/31 09:48:22;;;;;;;;;;;22.90;99.90;;;;;;5072175;28;19967;-59
2023/03/31 09:50:51;;;;;;;;;;;22.90;99.90;;;;;;5074314;28;19934;-60
2023/03/31 09:53:23;;;;;;;;;;;23.30;99.90;;;;;;5074101;28;19920;-59
2023/03/31 09:55:51;;;;;;;;;;;23.90;99.90;;;;;;5055854;28;19983;-59
2023/03/31 09:58:20;;;;;;;;;;;24.20;99.90;;;;;;5063617;28;19916;-59
2023/03/31 10:00:57;;;;;;;;;;;24.50;99.90;;;;;;5073304;28;19920;-59
2023/03/31 10:03:23;;;;;;;;;;;24.60;99.90;;;;;;5073713;28;19938;-59
2023/03/31 10:05:50;;;;;;;;;;;24.40;99.90;;;;;;5073376;28;19912;-59
2023/03/31 10:08:16;;;;;;;;;;;24.50;99.90;;;;;;5073391;28;19951;-60
2023/03/31 10:10:47;;;;;;;;;;;24.50;99.90;;;;;;5073594;28;19918;-60
2023/03/31 10:13:16;;;;;;;;;;;24.60;99.90;;;;;;5073719;28;19913;-60
2023/03/31 10:15:42;;;;;;;;;;;24.50;99.90;;;;;;5073490;28;19970;-60
2023/03/31 10:18:12;;;;;;;;;;;24.70;99.90;;;;;;5073322;28;19912;-60
2023/03/31 10:20:42;;;;;;;;;;;25.20;99.90;;;;;;5073196;28;19912;-60
2023/03/31 10:23:15;;;;;;;;;;;25.50;99.90;;;;;;5072924;28;19924;-60
2023/03/31 10:25:41;;;;;;;;;;;25.60;99.90;;;;;;5073658;28;19916;-60
2023/03/31 10:28:11;;;;;;;;;;;25.00;99.90;;;;;;5073494;28;19912;-60
2023/03/31 10:30:39;;;;;;;;;;;25.30;99.90;;;;;;5076256;28;19916;-60
2023/03/31 10:33:12;;;;;;;;;;;25.80;99.90;;;;;;5076911;28;19912;-60
2023/03/31 10:35:39;;;;;;;;;;;25.90;99.90;;;;;;5077236;28;19916;-60
2023/03/31 10:38:10;;;;;;;;;;;26.40;99.90;;;;;;5077113;28;20424;-60
2023/03/31 10:40:36;;;;;;;;;;;26.80;99.90;;;;;;5076895;28;19916;-60
2023/03/31 10:43:08;;;;;;;;;;;26.80;99.90;;;;;;5077612;28;19924;-60
2023/03/31 10:45:42;;;;;;;;;;;26.50;99.90;;;;;;5077839;28;20266;-60
2023/03/31 10:48:16;;;;;;;;;;;26.70;99.90;;;;;;5077881;28;19973;-60
2023/03/31 10:50:43;;;;;;;;;;;26.70;99.90;;;;;;5077514;28;19912;-60
2023/03/31 10:53:11;;;;;;;;;;;26.50;99.90;;;;;;5076500;28;19923;-60
2023/03/31 10:55:56;;;;;;;;;;;26.50;99.90;;;;;;5056755;28;19951;-60
2023/03/31 10:58:25;;;;;;;;;;;27.00;99.90;;;;;;5056463;28;20289;-60
2023/03/31 11:01:03;;;;;;;;;;;26.60;99.90;;;;;;5056770;28;19920;-60
2023/03/31 11:03:32;;;;;;;;;;;26.30;99.90;;;;;;5056733;28;19963;-60
2023/03/31 11:06:03;;;;;;;;;;;26.10;99.90;;;;;;5071665;28;19962;-60
2023/03/31 11:08:35;;;;;;;;;;;26.20;99.90;;;;;;5076476;28;19951;-60
2023/03/31 11:11:20;;;;;;;;;;;26.30;99.90;;;;;;5077184;28;19920;-60
2023/03/31 11:14:01;;;;;;;;;;;26.20;99.90;;;;;;5076885;28;19916;-60
2023/03/31 11:16:32;;;;;;;;;;;26.50;99.90;;;;;;5077204;28;19916;-60
2023/03/31 11:19:02;;;;;;;;;;;26.40;99.90;;;;;;5076618;28;19989;-60
2023/03/31 11:21:31;;;;;;;;;;;26.00;99.90;;;;;;5076607;28;19966;-60
2023/03/31 11:24:15;;;;;;;;;;;26.00;99.90;;;;;;5076236;28;19940;-60
2023/03/31 11:26:57;;;;;;;;;;;26.20;99.90;;;;;;5075821;28;19916;-60
2023/03/31 11:29:52;;;;;;;;;;;26.60;99.90;;;;;;5076159;28;19916;-60
2023/03/31 11:32:36;;;;;;;;;;;26.80;99.90;;;;;;5061954;28;20359;-60
2023/03/31 11:35:13;;;;;;;;;;;26.90;99.90;;;;;;5072478;28;19920;-60
2023/03/31 11:37:54;;;;;;;;;;;27.30;99.90;;;;;;5069783;28;20046;-60
2023/03/31 11:40:19;;;;;;;;;;;27.70;99.90;;;;;;5075639;28;19913;-60
2023/03/31 11:42:51;;;;;;;;;;;26.80;99.90;;;;;;5075307;28;20404;-60
2023/03/31 11:45:22;;;;;;;;;;;26.80;99.90;;;;;;5074151;28;19916;-60
2023/03/31 11:47:50;;;;;;;;;;;26.80;99.90;;;;;;5075463;28;20316;-60
2023/03/31 11:50:18;;;;;;;;;;;26.70;99.90;;;;;;5075974;28;19916;-60
2023/03/31 11:52:52;;;;;;;;;;;26.10;99.90;;;;;;5076148;28;19916;-60
2023/03/31 11:55:20;;;;;;;;;;;25.40;99.90;;;;;;5076045;28;19928;-60
2023/03/31 11:57:49;;;;;;;;;;;25.50;99.90;;;;;;5076334;28;19956;-60
2023/03/31 12:00:19;;;;;;;;;;;25.60;99.90;;;;;;5076219;28;20367;-60
2023/03/31 12:02:45;;;;;;;;;;;25.90;99.90;;;;;;5075096;28;19917;-60
2023/03/31 12:05:12;;;;;;;;;;;26.00;99.90;;;;;;5074540;28;19917;-60
2023/03/31 12:07:51;;;;;;;;;;;26.20;99.90;;;;;;5075732;28;19912;-60
2023/03/31 12:10:34;;;;;;;;;;;26.30;99.90;;;;;;5075211;28;19963;-60
2023/03/31 12:13:06;;;;;;;;;;;26.30;99.90;;;;;;5075005;28;19918;-60
2023/03/31 12:15:41;;;;;;;;;;;26.50;99.90;;;;;;5075020;28;19921;-60
2023/03/31 12:18:16;;;;;;;;;;;26.70;99.90;;;;;;5075230;28;19966;-60
2023/03/31 12:20:47;;;;;;;;;;;26.90;99.90;;;;;;5074992;28;20399;-60
2023/03/31 12:23:18;;;;;;;;;;;27.00;99.90;;;;;;5075850;28;19912;-60
2023/03/31 12:25:51;;;;;;;;;;;27.40;99.90;;;;;;5075895;28;19917;-60
2023/03/31 12:28:17;;;;;;;;;;;27.50;99.90;;;;;;5075893;28;19916;-60
2023/03/31 12:30:44;;;;;;;;;;;25.80;99.90;;;;;;5075718;28;19959;-60
2023/03/31 12:33:40;;;;;;;;;;;26.30;99.90;;;;;;5075450;28;19960;-60
2023/03/31 12:36:24;;;;;;;;;;;26.90;99.90;;;;;;5053339;28;19923;-60
2023/03/31 12:38:57;;;;;;;;;;;26.20;99.90;;;;;;5074228;28;19954;-60
2023/03/31 12:41:38;;;;;;;;;;;26.40;99.90;;;;;;5074652;28;19913;-60
2023/03/31 12:44:22;;;;;;;;;;;26.70;99.90;;;;;;5074956;28;19912;-60
2023/03/31 12:47:11;;;;;;;;;;;26.60;99.90;;;;;;5075583;28;19916;-60
2023/03/31 12:49:40;;;;;;;;;;;26.70;99.90;;;;;;5075344;28;19916;-60
2023/03/31 12:52:07;;;;;;;;;;;26.50;99.90;;;;;;5073561;28;19968;-60
2023/03/31 12:54:52;;;;;;;;;;;26.60;99.90;;;;;;5074749;28;19928;-59
2023/03/31 12:57:22;;;;;;;;;;;26.80;99.90;;;;;;5075309;28;20320;-60
2023/03/31 13:00:05;;;;;;;;;;;26.60;99.90;;;;;;5075277;28;19948;-59
2023/03/31 13:02:30;;;;;;;;;;;26.50;99.90;;;;;;5074325;28;19997;-59
2023/03/31 13:04:56;;;;;;;;;;;26.30;99.90;;;;;;5074038;28;19917;-59
2023/03/31 13:07:25;;;;;;;;;;;25.90;99.90;;;;;;5074465;28;20390;-59
2023/03/31 13:10:11;;;;;;;;;;;25.50;99.90;;;;;;5074046;28;19965;-59
2023/03/31 13:12:37;;;;;;;;;;;25.60;99.90;;;;;;5032171;28;19995;-59
2023/03/31 13:15:03;;;;;;;;;;;25.70;99.90;;;;;;5074042;28;19951;-59
2023/03/31 13:17:31;;;;;;;;;;;25.80;99.90;;;;;;5073539;28;19974;-59
2023/03/31 13:20:14;;;;;;;;;;;25.80;99.90;;;;;;5073608;28;19913;-59
2023/03/31 13:22:42;;;;;;;;;;;26.00;99.90;;;;;;5074162;28;19912;-59
2023/03/31 13:25:26;;;;;;;;;;;26.30;99.90;;;;;;5074309;28;19986;-59
2023/03/31 13:27:52;;;;;;;;;;;26.10;99.90;;;;;;5073885;28;19913;-59
2023/03/31 13:30:41;;;;;;;;;;;25.70;99.90;;;;;;5074149;28;19912;-59
2023/03/31 13:33:09;;;;;;;;;;;25.50;99.90;;;;;;5066044;28;19913;-59
2023/03/31 13:35:36;;;;;;;;;;;25.20;99.90;;;;;;5074757;28;20285;-59
2023/03/31 13:38:05;;;;;;;;;;;25.00;99.90;;;;;;5075161;28;19912;-60
2023/03/31 13:40:31;;;;;;;;;;;25.00;99.90;;;;;;5075311;28;19951;-59
2023/03/31 13:43:12;;;;;;;;;;;24.70;99.90;;;;;;5074562;28;20254;-59
2023/03/31 13:45:45;;;;;;;;;;;24.60;99.90;;;;;;5074430;28;19987;-59
2023/03/31 13:48:24;;;;;;;;;;;24.50;99.90;;;;;;5074439;28;20278;-59
2023/03/31 13:50:53;;;;;;;;;;;24.10;99.90;;;;;;5074657;28;19912;-59
2023/03/31 13:53:22;;;;;;;;;;;24.00;99.90;;;;;;5073908;28;20286;-59
2023/03/31 13:55:53;;;;;;;;;;;23.80;99.90;;;;;;5074206;28;19924;-59
2023/03/31 13:58:22;;;;;;;;;;;24.00;99.90;;;;;;5074434;28;19913;-59
2023/03/31 14:00:53;;;;;;;;;;;23.80;99.90;;;;;;5074248;28;19917;-59
2023/03/31 14:03:18;;;;;;;;;;;23.80;99.90;;;;;;5074835;28;19913;-59
2023/03/31 14:05:48;;;;;;;;;;;23.70;99.90;;;;;;5077793;28;20015;-59
2023/03/31 14:08:17;;;;;;;;;;;23.70;99.90;;;;;;5077866;28;20006;-59
2023/03/31 14:10:43;;;;;;;;;;;23.70;99.90;;;;;;5077965;28;19908;-59
2023/03/31 14:13:10;;;;;;;;;;;23.50;99.90;;;;;;5077977;28;19955;-59
2023/03/31 14:15:37;;;;;;;;;;;23.40;99.90;;;;;;5077948;28;19924;-59
2023/03/31 14:18:04;;;;;;;;;;;23.20;99.90;;;;;;5077784;28;19916;-59
2023/03/31 14:20:33;;;;;;;;;;;23.10;99.90;;;;;;5077969;28;19919;-59
2023/03/31 14:22:58;;;;;;;;;;;23.10;99.90;;;;;;5077916;28;19912;-59
2023/03/31 14:25:42;;;;;;;;;;;23.00;99.90;;;;;;5078086;28;20469;-59
2023/03/31 14:28:26;;;;;;;;;;;23.00;99.90;;;;;;5077815;28;20373;-59
2023/03/31 14:31:01;;;;;;;;;;;22.80;99.90;;;;;;5077542;28;19912;-59